sensor_id;sensor_type;location;lat;lon;timestamp;P1;durP1;ratioP1;P2;durP2;ratioP2
69030;SDS011;56083;48.774;8.942;2023-02-24T00:00:55;57.85;;;27.23;;
69030;SDS011;56083;48.774;8.942;2023-02-24T00:03:25;57.28;;;30.38;;
69030;SDS011;56083;48.774;8.942;2023-02-24T00:05:51;63.20;;;31.83;;
69030;SDS011;56083;48.774;8.942;2023-02-24T00:08:16;55.70;;;29.95;;
69030;SDS011;56083;48.774;8.942;2023-02-24T00:10:42;54.78;;;28.75;;
69030;SDS011;56083;48.774;8.942;2023-02-24T00:13:08;48.17;;;27.05;;
69030;SDS011;56083;48.774;8.942;2023-02-24T00:15:35;44.30;;;25.00;;
69030;SDS011;56083;48.774;8.942;2023-02-24T00:18:01;39.42;;;22.02;;
69030;SDS011;56083;48.774;8.942;2023-02-24T00:20:31;41.88;;;23.98;;
69030;SDS011;56083;48.774;8.942;2023-02-24T00:22:57;37.30;;;22.60;;
69030;SDS011;56083;48.774;8.942;2023-02-24T00:25:24;41.15;;;22.63;;
69030;SDS011;56083;48.774;8.942;2023-02-24T00:27:51;43.28;;;23.55;;
69030;SDS011;56083;48.774;8.942;2023-02-24T00:30:19;32.83;;;21.38;;
69030;SDS011;56083;48.774;8.942;2023-02-24T00:32:47;35.90;;;20.73;;
69030;SDS011;56083;48.774;8.942;2023-02-24T00:35:13;37.13;;;21.80;;
69030;SDS011;56083;48.774;8.942;2023-02-24T00:37:39;34.85;;;20.83;;
69030;SDS011;56083;48.774;8.942;2023-02-24T00:40:05;38.22;;;20.95;;
69030;SDS011;56083;48.774;8.942;2023-02-24T00:42:35;38.05;;;21.52;;
69030;SDS011;56083;48.774;8.942;2023-02-24T00:45:01;39.45;;;20.75;;
69030;SDS011;56083;48.774;8.942;2023-02-24T00:47:35;45.00;;;22.10;;
69030;SDS011;56083;48.774;8.942;2023-02-24T00:50:03;45.05;;;22.92;;
69030;SDS011;56083;48.774;8.942;2023-02-24T00:52:29;44.20;;;23.50;;
69030;SDS011;56083;48.774;8.942;2023-02-24T00:54:55;44.75;;;23.90;;
69030;SDS011;56083;48.774;8.942;2023-02-24T00:57:21;48.15;;;24.35;;
69030;SDS011;56083;48.774;8.942;2023-02-24T00:59:47;45.45;;;24.38;;
69030;SDS011;56083;48.774;8.942;2023-02-24T01:02:15;40.72;;;23.08;;
69030;SDS011;56083;48.774;8.942;2023-02-24T01:04:41;48.08;;;25.40;;
69030;SDS011;56083;48.774;8.942;2023-02-24T01:07:08;43.45;;;23.75;;
69030;SDS011;56083;48.774;8.942;2023-02-24T01:09:35;53.47;;;26.92;;
69030;SDS011;56083;48.774;8.942;2023-02-24T01:12:02;56.55;;;30.92;;
69030;SDS011;56083;48.774;8.942;2023-02-24T01:14:50;54.50;;;31.20;;
69030;SDS011;56083;48.774;8.942;2023-02-24T01:17:17;51.47;;;30.55;;
69030;SDS011;56083;48.774;8.942;2023-02-24T01:19:44;58.80;;;32.00;;
69030;SDS011;56083;48.774;8.942;2023-02-24T01:22:13;65.32;;;33.05;;
69030;SDS011;56083;48.774;8.942;2023-02-24T01:24:40;56.20;;;31.33;;
69030;SDS011;56083;48.774;8.942;2023-02-24T01:27:07;64.43;;;33.03;;
69030;SDS011;56083;48.774;8.942;2023-02-24T01:29:34;63.95;;;33.00;;
69030;SDS011;56083;48.774;8.942;2023-02-24T01:32:07;60.67;;;32.45;;
69030;SDS011;56083;48.774;8.942;2023-02-24T01:34:37;52.38;;;30.45;;
69030;SDS011;56083;48.774;8.942;2023-02-24T01:37:03;55.92;;;30.98;;
69030;SDS011;56083;48.774;8.942;2023-02-24T01:39:28;59.38;;;30.55;;
69030;SDS011;56083;48.774;8.942;2023-02-24T01:41:54;53.13;;;30.85;;
69030;SDS011;56083;48.774;8.942;2023-02-24T01:46:52;56.45;;;30.42;;
69030;SDS011;56083;48.774;8.942;2023-02-24T01:51:49;55.47;;;31.08;;
69030;SDS011;56083;48.774;8.942;2023-02-24T01:54:19;55.38;;;29.55;;
69030;SDS011;56083;48.774;8.942;2023-02-24T01:56:48;48.25;;;28.50;;
69030;SDS011;56083;48.774;8.942;2023-02-24T01:59:15;52.60;;;30.27;;
69030;SDS011;56083;48.774;8.942;2023-02-24T02:01:41;57.20;;;30.52;;
69030;SDS011;56083;48.774;8.942;2023-02-24T02:04:24;60.08;;;30.98;;
69030;SDS011;56083;48.774;8.942;2023-02-24T02:07:09;54.63;;;31.38;;
69030;SDS011;56083;48.774;8.942;2023-02-24T02:09:40;59.55;;;31.98;;
69030;SDS011;56083;48.774;8.942;2023-02-24T02:12:07;57.17;;;31.70;;
69030;SDS011;56083;48.774;8.942;2023-02-24T02:14:33;55.25;;;31.85;;
69030;SDS011;56083;48.774;8.942;2023-02-24T02:17:04;60.15;;;33.13;;
69030;SDS011;56083;48.774;8.942;2023-02-24T02:25:23;60.55;;;33.28;;
69030;SDS011;56083;48.774;8.942;2023-02-24T02:36:33;60.13;;;33.72;;
69030;SDS011;56083;48.774;8.942;2023-02-24T02:39:15;66.05;;;33.55;;
69030;SDS011;56083;48.774;8.942;2023-02-24T02:41:56;59.03;;;34.08;;
69030;SDS011;56083;48.774;8.942;2023-02-24T02:47:31;60.20;;;34.13;;
69030;SDS011;56083;48.774;8.942;2023-02-24T02:50:40;58.22;;;33.28;;
69030;SDS011;56083;48.774;8.942;2023-02-24T02:53:24;67.45;;;34.88;;
69030;SDS011;56083;48.774;8.942;2023-02-24T02:58:41;66.45;;;34.72;;
69030;SDS011;56083;48.774;8.942;2023-02-24T03:01:13;69.72;;;36.97;;
69030;SDS011;56083;48.774;8.942;2023-02-24T03:03:43;68.43;;;37.20;;
69030;SDS011;56083;48.774;8.942;2023-02-24T03:06:22;73.00;;;38.42;;
69030;SDS011;56083;48.774;8.942;2023-02-24T03:08:59;74.35;;;39.30;;
69030;SDS011;56083;48.774;8.942;2023-02-24T03:11:49;81.47;;;42.75;;
69030;SDS011;56083;48.774;8.942;2023-02-24T03:14:23;92.47;;;43.78;;
69030;SDS011;56083;48.774;8.942;2023-02-24T03:16:52;92.13;;;43.95;;
69030;SDS011;56083;48.774;8.942;2023-02-24T03:19:20;97.50;;;43.20;;
69030;SDS011;56083;48.774;8.942;2023-02-24T03:22:00;98.25;;;45.50;;
69030;SDS011;56083;48.774;8.942;2023-02-24T03:24:31;102.22;;;46.05;;
69030;SDS011;56083;48.774;8.942;2023-02-24T03:27:05;104.20;;;47.20;;
69030;SDS011;56083;48.774;8.942;2023-02-24T03:29:47;111.57;;;48.85;;
69030;SDS011;56083;48.774;8.942;2023-02-24T03:32:19;107.40;;;48.75;;
69030;SDS011;56083;48.774;8.942;2023-02-24T03:35:04;107.40;;;49.22;;
69030;SDS011;56083;48.774;8.942;2023-02-24T03:37:37;109.65;;;50.22;;
69030;SDS011;56083;48.774;8.942;2023-02-24T03:40:05;116.00;;;50.35;;
69030;SDS011;56083;48.774;8.942;2023-02-24T03:42:45;119.00;;;51.08;;
69030;SDS011;56083;48.774;8.942;2023-02-24T03:45:14;108.55;;;49.17;;
69030;SDS011;56083;48.774;8.942;2023-02-24T03:47:41;144.57;;;54.05;;
69030;SDS011;56083;48.774;8.942;2023-02-24T03:50:16;136.25;;;54.35;;
69030;SDS011;56083;48.774;8.942;2023-02-24T04:00:29;142.77;;;57.30;;
69030;SDS011;56083;48.774;8.942;2023-02-24T04:03:08;231.52;;;63.58;;
69030;SDS011;56083;48.774;8.942;2023-02-24T04:08:37;203.98;;;62.58;;
69030;SDS011;56083;48.774;8.942;2023-02-24T04:11:21;171.70;;;61.15;;
69030;SDS011;56083;48.774;8.942;2023-02-24T04:13:57;162.48;;;60.63;;
69030;SDS011;56083;48.774;8.942;2023-02-24T04:19:34;185.15;;;67.18;;
69030;SDS011;56083;48.774;8.942;2023-02-24T04:22:07;165.77;;;62.28;;
69030;SDS011;56083;48.774;8.942;2023-02-24T04:24:36;147.90;;;59.78;;
69030;SDS011;56083;48.774;8.942;2023-02-24T04:27:03;142.75;;;57.92;;
69030;SDS011;56083;48.774;8.942;2023-02-24T04:29:33;142.77;;;57.80;;
69030;SDS011;56083;48.774;8.942;2023-02-24T04:32:05;138.43;;;56.85;;
69030;SDS011;56083;48.774;8.942;2023-02-24T04:34:33;145.98;;;58.25;;
69030;SDS011;56083;48.774;8.942;2023-02-24T04:36:59;147.13;;;59.40;;
69030;SDS011;56083;48.774;8.942;2023-02-24T04:39:26;141.60;;;55.67;;
69030;SDS011;56083;48.774;8.942;2023-02-24T04:41:52;136.25;;;55.40;;
69030;SDS011;56083;48.774;8.942;2023-02-24T04:44:19;136.48;;;55.85;;
69030;SDS011;56083;48.774;8.942;2023-02-24T04:46:46;131.93;;;54.35;;
69030;SDS011;56083;48.774;8.942;2023-02-24T04:49:16;146.60;;;58.55;;
69030;SDS011;56083;48.774;8.942;2023-02-24T04:51:43;136.60;;;54.17;;
69030;SDS011;56083;48.774;8.942;2023-02-24T04:54:10;145.30;;;56.75;;
69030;SDS011;56083;48.774;8.942;2023-02-24T04:56:40;134.30;;;55.92;;
69030;SDS011;56083;48.774;8.942;2023-02-24T04:59:06;142.80;;;56.08;;
69030;SDS011;56083;48.774;8.942;2023-02-24T05:01:34;139.15;;;56.30;;
69030;SDS011;56083;48.774;8.942;2023-02-24T05:04:03;152.95;;;54.97;;
69030;SDS011;56083;48.774;8.942;2023-02-24T05:06:30;174.00;;;58.13;;
69030;SDS011;56083;48.774;8.942;2023-02-24T05:08:56;238.55;;;58.25;;
69030;SDS011;56083;48.774;8.942;2023-02-24T05:11:22;326.55;;;60.42;;
69030;SDS011;56083;48.774;8.942;2023-02-24T05:13:47;167.65;;;56.35;;
69030;SDS011;56083;48.774;8.942;2023-02-24T05:16:14;254.90;;;60.28;;
69030;SDS011;56083;48.774;8.942;2023-02-24T05:18:42;287.73;;;57.67;;
69030;SDS011;56083;48.774;8.942;2023-02-24T05:21:13;226.23;;;56.30;;
69030;SDS011;56083;48.774;8.942;2023-02-24T05:23:59;273.05;;;57.10;;
69030;SDS011;56083;48.774;8.942;2023-02-24T05:26:32;225.55;;;59.40;;
69030;SDS011;56083;48.774;8.942;2023-02-24T05:29:00;220.85;;;61.00;;
69030;SDS011;56083;48.774;8.942;2023-02-24T05:31:27;227.48;;;59.85;;
69030;SDS011;56083;48.774;8.942;2023-02-24T05:33:55;184.25;;;61.70;;
69030;SDS011;56083;48.774;8.942;2023-02-24T05:36:23;168.57;;;61.25;;
69030;SDS011;56083;48.774;8.942;2023-02-24T05:38:51;185.23;;;63.17;;
69030;SDS011;56083;48.774;8.942;2023-02-24T05:41:40;170.25;;;61.30;;
69030;SDS011;56083;48.774;8.942;2023-02-24T05:44:11;165.38;;;59.75;;
69030;SDS011;56083;48.774;8.942;2023-02-24T05:46:40;168.05;;;62.10;;
69030;SDS011;56083;48.774;8.942;2023-02-24T05:49:12;156.25;;;60.30;;
69030;SDS011;56083;48.774;8.942;2023-02-24T05:51:44;163.65;;;62.97;;
69030;SDS011;56083;48.774;8.942;2023-02-24T05:54:18;165.13;;;59.92;;
69030;SDS011;56083;48.774;8.942;2023-02-24T05:56:46;178.27;;;62.42;;
69030;SDS011;56083;48.774;8.942;2023-02-24T05:59:14;177.55;;;62.42;;
69030;SDS011;56083;48.774;8.942;2023-02-24T06:01:45;188.98;;;68.53;;
69030;SDS011;56083;48.774;8.942;2023-02-24T06:04:12;172.40;;;63.53;;
69030;SDS011;56083;48.774;8.942;2023-02-24T06:06:51;157.60;;;57.83;;
69030;SDS011;56083;48.774;8.942;2023-02-24T06:09:17;152.10;;;60.00;;
69030;SDS011;56083;48.774;8.942;2023-02-24T06:11:47;147.43;;;57.00;;
69030;SDS011;56083;48.774;8.942;2023-02-24T06:14:13;138.50;;;54.47;;
69030;SDS011;56083;48.774;8.942;2023-02-24T06:16:40;139.35;;;55.15;;
69030;SDS011;56083;48.774;8.942;2023-02-24T06:19:07;144.50;;;56.75;;
69030;SDS011;56083;48.774;8.942;2023-02-24T06:21:34;144.40;;;55.58;;
69030;SDS011;56083;48.774;8.942;2023-02-24T06:24:01;127.63;;;54.03;;
69030;SDS011;56083;48.774;8.942;2023-02-24T06:26:27;131.15;;;52.65;;
69030;SDS011;56083;48.774;8.942;2023-02-24T06:28:57;124.15;;;52.33;;
69030;SDS011;56083;48.774;8.942;2023-02-24T06:31:23;118.68;;;51.17;;
69030;SDS011;56083;48.774;8.942;2023-02-24T06:33:50;113.35;;;50.10;;
69030;SDS011;56083;48.774;8.942;2023-02-24T06:36:17;106.18;;;48.75;;
69030;SDS011;56083;48.774;8.942;2023-02-24T06:38:44;98.70;;;47.08;;
69030;SDS011;56083;48.774;8.942;2023-02-24T06:41:10;100.47;;;47.47;;
69030;SDS011;56083;48.774;8.942;2023-02-24T06:43:37;99.55;;;47.95;;
69030;SDS011;56083;48.774;8.942;2023-02-24T06:46:05;99.30;;;46.42;;
69030;SDS011;56083;48.774;8.942;2023-02-24T06:48:32;91.72;;;44.78;;
69030;SDS011;56083;48.774;8.942;2023-02-24T06:51:07;94.15;;;45.75;;
69030;SDS011;56083;48.774;8.942;2023-02-24T06:53:37;93.85;;;45.20;;
69030;SDS011;56083;48.774;8.942;2023-02-24T06:56:10;90.53;;;42.90;;
69030;SDS011;56083;48.774;8.942;2023-02-24T06:58:41;90.82;;;44.20;;
69030;SDS011;56083;48.774;8.942;2023-02-24T07:01:09;99.20;;;46.58;;
69030;SDS011;56083;48.774;8.942;2023-02-24T07:03:44;88.97;;;43.92;;
69030;SDS011;56083;48.774;8.942;2023-02-24T07:06:27;91.43;;;45.42;;
69030;SDS011;56083;48.774;8.942;2023-02-24T07:08:58;100.88;;;46.15;;
69030;SDS011;56083;48.774;8.942;2023-02-24T07:11:28;100.57;;;46.25;;
69030;SDS011;56083;48.774;8.942;2023-02-24T07:13:54;109.35;;;48.90;;
69030;SDS011;56083;48.774;8.942;2023-02-24T07:16:22;113.50;;;49.88;;
69030;SDS011;56083;48.774;8.942;2023-02-24T07:18:52;137.30;;;52.92;;
69030;SDS011;56083;48.774;8.942;2023-02-24T07:21:22;126.18;;;53.08;;
69030;SDS011;56083;48.774;8.942;2023-02-24T07:23:50;138.48;;;54.35;;
69030;SDS011;56083;48.774;8.942;2023-02-24T07:26:21;139.88;;;55.60;;
69030;SDS011;56083;48.774;8.942;2023-02-24T07:28:48;131.93;;;54.03;;
69030;SDS011;56083;48.774;8.942;2023-02-24T07:31:16;125.82;;;53.95;;
69030;SDS011;56083;48.774;8.942;2023-02-24T07:33:43;146.80;;;52.55;;
69030;SDS011;56083;48.774;8.942;2023-02-24T07:36:14;140.32;;;54.75;;
69030;SDS011;56083;48.774;8.942;2023-02-24T07:38:43;126.10;;;52.30;;
69030;SDS011;56083;48.774;8.942;2023-02-24T07:41:10;115.15;;;49.28;;
69030;SDS011;56083;48.774;8.942;2023-02-24T07:43:39;115.07;;;49.78;;
69030;SDS011;56083;48.774;8.942;2023-02-24T07:46:10;117.68;;;50.95;;
69030;SDS011;56083;48.774;8.942;2023-02-24T07:48:44;123.63;;;48.05;;
69030;SDS011;56083;48.774;8.942;2023-02-24T07:51:14;135.65;;;51.08;;
69030;SDS011;56083;48.774;8.942;2023-02-24T07:53:42;129.00;;;50.25;;
69030;SDS011;56083;48.774;8.942;2023-02-24T07:56:11;134.10;;;56.45;;
69030;SDS011;56083;48.774;8.942;2023-02-24T07:58:40;131.60;;;61.42;;
69030;SDS011;56083;48.774;8.942;2023-02-24T08:01:10;119.93;;;48.30;;
69030;SDS011;56083;48.774;8.942;2023-02-24T08:03:47;115.15;;;47.10;;
69030;SDS011;56083;48.774;8.942;2023-02-24T08:06:16;113.88;;;46.30;;
69030;SDS011;56083;48.774;8.942;2023-02-24T08:08:51;111.18;;;46.65;;
69030;SDS011;56083;48.774;8.942;2023-02-24T08:11:40;104.47;;;45.35;;
69030;SDS011;56083;48.774;8.942;2023-02-24T08:14:10;110.35;;;45.60;;
69030;SDS011;56083;48.774;8.942;2023-02-24T08:16:40;114.07;;;46.45;;
69030;SDS011;56083;48.774;8.942;2023-02-24T08:19:10;99.22;;;44.05;;
69030;SDS011;56083;48.774;8.942;2023-02-24T08:21:41;96.40;;;43.17;;
69030;SDS011;56083;48.774;8.942;2023-02-24T08:24:15;95.18;;;42.10;;
69030;SDS011;56083;48.774;8.942;2023-02-24T08:26:44;92.20;;;41.35;;
69030;SDS011;56083;48.774;8.942;2023-02-24T08:29:34;81.50;;;38.65;;
69030;SDS011;56083;48.774;8.942;2023-02-24T08:32:10;78.13;;;38.08;;
69030;SDS011;56083;48.774;8.942;2023-02-24T08:34:39;81.35;;;37.50;;
69030;SDS011;56083;48.774;8.942;2023-02-24T08:37:08;72.57;;;35.08;;
69030;SDS011;56083;48.774;8.942;2023-02-24T08:39:33;69.45;;;34.75;;
69030;SDS011;56083;48.774;8.942;2023-02-24T08:42:00;66.60;;;32.95;;
69030;SDS011;56083;48.774;8.942;2023-02-24T08:44:27;57.00;;;29.95;;
69030;SDS011;56083;48.774;8.942;2023-02-24T08:46:53;139.25;;;79.35;;
69030;SDS011;56083;48.774;8.942;2023-02-24T08:49:20;136.60;;;64.90;;
69030;SDS011;56083;48.774;8.942;2023-02-24T08:51:49;84.55;;;44.05;;
69030;SDS011;56083;48.774;8.942;2023-02-24T08:54:22;56.65;;;28.15;;
69030;SDS011;56083;48.774;8.942;2023-02-24T08:56:52;54.10;;;26.73;;
69030;SDS011;56083;48.774;8.942;2023-02-24T08:59:25;49.15;;;24.02;;
69030;SDS011;56083;48.774;8.942;2023-02-24T09:02:15;39.25;;;21.00;;
69030;SDS011;56083;48.774;8.942;2023-02-24T09:04:53;39.92;;;19.80;;
69030;SDS011;56083;48.774;8.942;2023-02-24T09:07:29;39.15;;;18.83;;
69030;SDS011;56083;48.774;8.942;2023-02-24T09:10:20;39.55;;;19.08;;
69030;SDS011;56083;48.774;8.942;2023-02-24T09:12:45;38.40;;;14.65;;
69030;SDS011;56083;48.774;8.942;2023-02-24T09:15:14;28.67;;;13.25;;
69030;SDS011;56083;48.774;8.942;2023-02-24T09:17:44;31.27;;;12.45;;
69030;SDS011;56083;48.774;8.942;2023-02-24T09:20:11;28.55;;;11.60;;
69030;SDS011;56083;48.774;8.942;2023-02-24T09:22:51;35.15;;;11.73;;
69030;SDS011;56083;48.774;8.942;2023-02-24T09:25:22;27.38;;;11.13;;
69030;SDS011;56083;48.774;8.942;2023-02-24T09:30:33;26.50;;;10.77;;
69030;SDS011;56083;48.774;8.942;2023-02-24T09:33:14;27.25;;;10.90;;
69030;SDS011;56083;48.774;8.942;2023-02-24T09:35:43;29.50;;;10.38;;
69030;SDS011;56083;48.774;8.942;2023-02-24T09:38:11;33.97;;;9.85;;
69030;SDS011;56083;48.774;8.942;2023-02-24T09:40:41;29.75;;;9.70;;
69030;SDS011;56083;48.774;8.942;2023-02-24T09:43:19;34.40;;;11.35;;
69030;SDS011;56083;48.774;8.942;2023-02-24T09:46:03;27.20;;;10.57;;
69030;SDS011;56083;48.774;8.942;2023-02-24T09:51:18;32.67;;;9.85;;
69030;SDS011;56083;48.774;8.942;2023-02-24T09:53:52;32.13;;;10.98;;
69030;SDS011;56083;48.774;8.942;2023-02-24T10:04:26;39.17;;;15.20;;
69030;SDS011;56083;48.774;8.942;2023-02-24T10:07:29;39.95;;;17.17;;
69030;SDS011;56083;48.774;8.942;2023-02-24T10:12:53;33.65;;;16.80;;
69030;SDS011;56083;48.774;8.942;2023-02-24T10:15:27;45.00;;;17.77;;
69030;SDS011;56083;48.774;8.942;2023-02-24T10:18:25;40.08;;;17.27;;
69030;SDS011;56083;48.774;8.942;2023-02-24T10:20:58;33.53;;;16.80;;
69030;SDS011;56083;48.774;8.942;2023-02-24T10:26:36;45.88;;;18.00;;
69030;SDS011;56083;48.774;8.942;2023-02-24T10:31:46;44.03;;;19.30;;
69030;SDS011;56083;48.774;8.942;2023-02-24T10:34:25;40.13;;;19.00;;
69030;SDS011;56083;48.774;8.942;2023-02-24T10:36:56;49.35;;;20.50;;
69030;SDS011;56083;48.774;8.942;2023-02-24T10:39:26;47.28;;;20.88;;
69030;SDS011;56083;48.774;8.942;2023-02-24T10:41:58;48.10;;;22.08;;
69030;SDS011;56083;48.774;8.942;2023-02-24T10:44:43;57.00;;;23.25;;
69030;SDS011;56083;48.774;8.942;2023-02-24T10:47:28;50.75;;;24.23;;
69030;SDS011;56083;48.774;8.942;2023-02-24T10:49:58;52.78;;;23.60;;
69030;SDS011;56083;48.774;8.942;2023-02-24T10:57:59;50.10;;;22.75;;
69030;SDS011;56083;48.774;8.942;2023-02-24T11:00:48;49.50;;;22.17;;
69030;SDS011;56083;48.774;8.942;2023-02-24T11:03:32;55.55;;;23.83;;
69030;SDS011;56083;48.774;8.942;2023-02-24T11:06:23;58.83;;;25.23;;
69030;SDS011;56083;48.774;8.942;2023-02-24T11:09:22;56.67;;;23.98;;
69030;SDS011;56083;48.774;8.942;2023-02-24T11:11:51;48.97;;;20.85;;
69030;SDS011;56083;48.774;8.942;2023-02-24T11:14:38;46.50;;;20.92;;
69030;SDS011;56083;48.774;8.942;2023-02-24T11:17:44;47.63;;;20.15;;
69030;SDS011;56083;48.774;8.942;2023-02-24T11:23:03;46.13;;;18.15;;
69030;SDS011;56083;48.774;8.942;2023-02-24T11:25:34;46.25;;;18.38;;
69030;SDS011;56083;48.774;8.942;2023-02-24T11:28:04;42.60;;;18.60;;
69030;SDS011;56083;48.774;8.942;2023-02-24T11:33:38;45.92;;;17.92;;
69030;SDS011;56083;48.774;8.942;2023-02-24T11:38:46;42.00;;;17.25;;
69030;SDS011;56083;48.774;8.942;2023-02-24T11:44:08;45.25;;;16.80;;
69030;SDS011;56083;48.774;8.942;2023-02-24T11:46:55;39.58;;;15.27;;
69030;SDS011;56083;48.774;8.942;2023-02-24T11:49:29;40.97;;;15.60;;
69030;SDS011;56083;48.774;8.942;2023-02-24T11:52:01;42.25;;;15.13;;
69030;SDS011;56083;48.774;8.942;2023-02-24T11:54:35;38.92;;;16.05;;
69030;SDS011;56083;48.774;8.942;2023-02-24T11:57:05;33.90;;;14.82;;
69030;SDS011;56083;48.774;8.942;2023-02-24T11:59:40;38.60;;;14.35;;
69030;SDS011;56083;48.774;8.942;2023-02-24T12:05:09;39.05;;;14.40;;
69030;SDS011;56083;48.774;8.942;2023-02-24T12:07:53;31.98;;;14.52;;
69030;SDS011;56083;48.774;8.942;2023-02-24T12:10:30;38.92;;;14.15;;
69030;SDS011;56083;48.774;8.942;2023-02-24T12:13:01;34.38;;;13.00;;
69030;SDS011;56083;48.774;8.942;2023-02-24T12:23:35;43.08;;;13.70;;
69030;SDS011;56083;48.774;8.942;2023-02-24T12:31:55;36.72;;;11.48;;
69030;SDS011;56083;48.774;8.942;2023-02-24T12:39:38;40.55;;;10.90;;
69030;SDS011;56083;48.774;8.942;2023-02-24T12:42:36;37.95;;;11.50;;
69030;SDS011;56083;48.774;8.942;2023-02-24T12:55:45;25.67;;;8.80;;
69030;SDS011;56083;48.774;8.942;2023-02-24T12:58:24;31.42;;;9.50;;
69030;SDS011;56083;48.774;8.942;2023-02-24T13:01:04;28.48;;;11.02;;
69030;SDS011;56083;48.774;8.942;2023-02-24T13:14:56;35.90;;;9.48;;
69030;SDS011;56083;48.774;8.942;2023-02-24T13:17:23;39.30;;;9.18;;
69030;SDS011;56083;48.774;8.942;2023-02-24T13:19:51;30.48;;;9.48;;
69030;SDS011;56083;48.774;8.942;2023-02-24T13:24:57;31.35;;;8.63;;
69030;SDS011;56083;48.774;8.942;2023-02-24T13:27:28;27.60;;;8.90;;
69030;SDS011;56083;48.774;8.942;2023-02-24T13:32:39;24.58;;;8.02;;
69030;SDS011;56083;48.774;8.942;2023-02-24T13:37:40;26.67;;;8.50;;
69030;SDS011;56083;48.774;8.942;2023-02-24T13:45:31;30.65;;;8.55;;
69030;SDS011;56083;48.774;8.942;2023-02-24T14:01:31;33.90;;;9.25;;
69030;SDS011;56083;48.774;8.942;2023-02-24T14:06:48;29.13;;;8.30;;
69030;SDS011;56083;48.774;8.942;2023-02-24T14:09:17;23.83;;;8.38;;
69030;SDS011;56083;48.774;8.942;2023-02-24T14:12:03;24.70;;;8.57;;
69030;SDS011;56083;48.774;8.942;2023-02-24T14:14:43;26.52;;;8.07;;
69030;SDS011;56083;48.774;8.942;2023-02-24T14:17:27;41.40;;;11.32;;
69030;SDS011;56083;48.774;8.942;2023-02-24T14:22:41;30.05;;;9.00;;
69030;SDS011;56083;48.774;8.942;2023-02-24T14:25:09;29.10;;;8.57;;
69030;SDS011;56083;48.774;8.942;2023-02-24T14:27:36;34.13;;;8.50;;
69030;SDS011;56083;48.774;8.942;2023-02-24T14:30:02;29.48;;;8.77;;
69030;SDS011;56083;48.774;8.942;2023-02-24T14:32:29;29.08;;;8.65;;
69030;SDS011;56083;48.774;8.942;2023-02-24T14:34:57;32.72;;;9.02;;
69030;SDS011;56083;48.774;8.942;2023-02-24T14:37:24;30.23;;;8.95;;
69030;SDS011;56083;48.774;8.942;2023-02-24T14:39:53;28.15;;;7.93;;
69030;SDS011;56083;48.774;8.942;2023-02-24T14:42:24;29.63;;;7.80;;
69030;SDS011;56083;48.774;8.942;2023-02-24T14:44:52;32.20;;;9.00;;
69030;SDS011;56083;48.774;8.942;2023-02-24T14:47:20;24.95;;;8.15;;
69030;SDS011;56083;48.774;8.942;2023-02-24T14:49:58;38.28;;;9.15;;
69030;SDS011;56083;48.774;8.942;2023-02-24T14:57:33;30.00;;;9.00;;
69030;SDS011;56083;48.774;8.942;2023-02-24T15:00:07;36.53;;;9.80;;
69030;SDS011;56083;48.774;8.942;2023-02-24T15:02:45;30.88;;;9.30;;
69030;SDS011;56083;48.774;8.942;2023-02-24T15:05:14;34.80;;;10.82;;
69030;SDS011;56083;48.774;8.942;2023-02-24T15:07:42;40.63;;;10.77;;
69030;SDS011;56083;48.774;8.942;2023-02-24T15:10:19;31.02;;;9.18;;
69030;SDS011;56083;48.774;8.942;2023-02-24T15:12:53;33.28;;;9.85;;
69030;SDS011;56083;48.774;8.942;2023-02-24T15:15:25;24.23;;;9.57;;
69030;SDS011;56083;48.774;8.942;2023-02-24T15:17:57;36.03;;;10.57;;
69030;SDS011;56083;48.774;8.942;2023-02-24T15:22:54;38.92;;;10.70;;
69030;SDS011;56083;48.774;8.942;2023-02-24T15:25:21;38.08;;;11.13;;
69030;SDS011;56083;48.774;8.942;2023-02-24T15:27:56;34.00;;;10.60;;
69030;SDS011;56083;48.774;8.942;2023-02-24T15:30:34;29.65;;;10.65;;
69030;SDS011;56083;48.774;8.942;2023-02-24T15:33:20;37.95;;;11.20;;
69030;SDS011;56083;48.774;8.942;2023-02-24T15:35:58;37.28;;;10.80;;
69030;SDS011;56083;48.774;8.942;2023-02-24T15:38:31;32.88;;;11.30;;
69030;SDS011;56083;48.774;8.942;2023-02-24T15:41:01;43.33;;;12.55;;
69030;SDS011;56083;48.774;8.942;2023-02-24T15:43:30;31.48;;;13.10;;
69030;SDS011;56083;48.774;8.942;2023-02-24T15:45:56;39.25;;;13.40;;
69030;SDS011;56083;48.774;8.942;2023-02-24T15:48:22;40.47;;;12.93;;
69030;SDS011;56083;48.774;8.942;2023-02-24T15:50:53;33.88;;;13.07;;
69030;SDS011;56083;48.774;8.942;2023-02-24T15:53:21;40.63;;;13.25;;
69030;SDS011;56083;48.774;8.942;2023-02-24T15:55:47;39.83;;;15.02;;
69030;SDS011;56083;48.774;8.942;2023-02-24T15:58:17;28.90;;;13.18;;
69030;SDS011;56083;48.774;8.942;2023-02-24T16:00:45;31.13;;;14.68;;
69030;SDS011;56083;48.774;8.942;2023-02-24T16:03:16;52.00;;;14.98;;
69030;SDS011;56083;48.774;8.942;2023-02-24T16:05:42;45.40;;;15.55;;
69030;SDS011;56083;48.774;8.942;2023-02-24T16:08:12;37.47;;;15.48;;
69030;SDS011;56083;48.774;8.942;2023-02-24T16:10:41;49.85;;;15.77;;
69030;SDS011;56083;48.774;8.942;2023-02-24T16:13:07;37.58;;;15.75;;
69030;SDS011;56083;48.774;8.942;2023-02-24T16:15:45;37.97;;;15.82;;
69030;SDS011;56083;48.774;8.942;2023-02-24T16:18:11;49.95;;;17.55;;
69030;SDS011;56083;48.774;8.942;2023-02-24T16:20:42;48.38;;;18.48;;
69030;SDS011;56083;48.774;8.942;2023-02-24T16:23:09;38.75;;;17.02;;
69030;SDS011;56083;48.774;8.942;2023-02-24T16:25:38;41.40;;;17.75;;
69030;SDS011;56083;48.774;8.942;2023-02-24T16:28:11;39.85;;;18.00;;
69030;SDS011;56083;48.774;8.942;2023-02-24T16:30:39;44.40;;;18.55;;
69030;SDS011;56083;48.774;8.942;2023-02-24T16:33:05;41.83;;;18.13;;
69030;SDS011;56083;48.774;8.942;2023-02-24T16:35:38;49.13;;;18.70;;
69030;SDS011;56083;48.774;8.942;2023-02-24T16:38:09;41.60;;;18.35;;
69030;SDS011;56083;48.774;8.942;2023-02-24T16:40:42;44.30;;;18.73;;
69030;SDS011;56083;48.774;8.942;2023-02-24T16:43:09;45.75;;;20.50;;
69030;SDS011;56083;48.774;8.942;2023-02-24T16:45:35;47.10;;;20.30;;
69030;SDS011;56083;48.774;8.942;2023-02-24T16:48:04;49.92;;;20.00;;
69030;SDS011;56083;48.774;8.942;2023-02-24T16:50:37;49.83;;;20.25;;
69030;SDS011;56083;48.774;8.942;2023-02-24T16:53:05;45.88;;;20.10;;
69030;SDS011;56083;48.774;8.942;2023-02-24T16:55:31;43.85;;;20.55;;
69030;SDS011;56083;48.774;8.942;2023-02-24T16:57:58;51.20;;;21.73;;
69030;SDS011;56083;48.774;8.942;2023-02-24T17:00:23;47.00;;;21.73;;
69030;SDS011;56083;48.774;8.942;2023-02-24T17:02:49;52.30;;;21.55;;
69030;SDS011;56083;48.774;8.942;2023-02-24T17:05:17;52.70;;;21.45;;
69030;SDS011;56083;48.774;8.942;2023-02-24T17:07:45;65.13;;;22.77;;
69030;SDS011;56083;48.774;8.942;2023-02-24T17:10:12;44.70;;;21.00;;
69030;SDS011;56083;48.774;8.942;2023-02-24T17:12:38;43.28;;;19.75;;
69030;SDS011;56083;48.774;8.942;2023-02-24T17:15:04;31.63;;;16.13;;
69030;SDS011;56083;48.774;8.942;2023-02-24T17:17:30;35.13;;;16.15;;
69030;SDS011;56083;48.774;8.942;2023-02-24T17:19:56;29.65;;;15.48;;
69030;SDS011;56083;48.774;8.942;2023-02-24T17:22:21;29.42;;;14.75;;
69030;SDS011;56083;48.774;8.942;2023-02-24T17:24:47;34.83;;;14.05;;